• Join FlightAware (Why Join?)
  • Login
  • US Flag 
Gobble Gobble! 
02:21AM EST


 

Airport Tracker/Info


-or-


 

Live Flight TrackerFlight Track Log ✈ SWA2975 ✈ 2013年 06月 25日 ✈ KDEN - KSLC

Flight Track Log - Related Links

Times and Time Zones

All times are in EDT time to prevent confusion due to time zone crossing. See the SWA2975 flight status page for this flight to view local times or setup timezone preferences in your user account.

Time Position Orientation Groundspeed Altitude Reporting Facility
EDT Latitude Longitude Course Direction KTS MPH feet Rate Location/Type
04:27PM 39.8650 -104.6800 289° West 20 23  Level FlightAware
04:27PM 39.8650 -104.6810 270° West 21 24 1,200 Level FlightAware
04:27PM 39.8630 -104.6840 229° Southwest 21 24 1,260 Level FlightAware
04:28PM 39.8610 -104.6840 180° South 24 28 1,380 Level FlightAware
04:28PM 39.8600 -104.6840 180° South 26 30 1,500 Level FlightAware
04:28PM 39.8560 -104.6840 180° South 28 32 1,560 Level FlightAware
04:29PM 39.8520 -104.6840 180° South 29 33 1,800 Level FlightAware
04:29PM 39.8490 -104.6840 180° South 33 38 2,100 Level FlightAware
04:32PM 39.8768 -104.9474 276° West  Level FlightAware Approximate
04:32PM 39.8410 -104.7280 276° West 183 211 6,000  Level FlightAware
04:32PM 39.8440 -104.7620 277° West 200 230 6,900 1,740 Climbing FlightAware
04:33PM 39.8580 -104.7930 300° West 228 262 7,700 1,560 Climbing FlightAware
04:33PM 39.8750 -104.8280 302° West 267 307 8,400 1,620 Climbing FlightAware
04:33PM 39.8810 -104.8480 291° West 282 325 8,800 2,520 Climbing FlightAware
04:34PM 39.8740 -104.9240 263° West 302 348 10,800 2,700 Climbing FlightAware
04:35PM 39.8650 -104.9930 260° West 306 352 12,600 3,180 Climbing FlightAware
04:35PM 39.8670 -105.0580 272° West 300 345 14,800 3,300 Climbing FlightAware
04:36PM 39.8830 -105.1490 283° West 306 352 17,400 2,820 Climbing FlightAware
04:37PM 39.8960 -105.2230 283° West 316 364 19,100 1,980 Climbing FlightAware
04:38PM 39.9100 -105.3060 282° West 342 394 20,200 1,080 Climbing FlightAware
04:38PM 39.9260 -105.3940 283° West 383 441 20,700 1,380 Climbing FlightAware
04:39PM 39.9410 -105.4860 282° West 390 449 22,100 1,800 Climbing FlightAware
04:40PM 39.9580 -105.5840 283° West 404 465 23,200 1,740 Climbing FlightAware
04:40PM 39.9730 -105.6910 280° West 413 475 24,600 1,800 Climbing FlightAware
04:41PM 39.9720 -105.7950 269° West 418 481 25,800 1,680 Climbing FlightAware
04:42PM 39.9730 -105.8960 271° West 424 488 26,900 1,560 Climbing FlightAware
04:42PM 39.9790 -106.0040 274° West 433 498 28,000 1,380 Climbing FlightAware
04:43PM 39.9850 -106.1190 274° West 442 509 28,900 1,380 Climbing FlightAware
04:44PM 39.9910 -106.2270 274° West 441 507 30,000 1,680 Climbing FlightAware
04:45PM 39.9970 -106.3350 274° West 437 503 31,200 1,620 Climbing FlightAware
04:45PM 40.0030 -106.4510 274° West 434 499 32,400 1,620 Climbing FlightAware
04:46PM 40.0080 -106.5460 274° West 429 494 33,400 1,560 Climbing FlightAware
04:47PM 40.0130 -106.6630 273° West 426 490 34,600 1,320 Climbing FlightAware
04:47PM 40.0190 -106.7700 274° West 426 490 35,400 960 Climbing FlightAware
04:48PM 40.0240 -106.8800 273° West 426 490 36,000 360 Climbing FlightAware
04:49PM 40.0290 -106.9900 273° West 425 489 36,000  Level FlightAware
04:49PM 40.0330 -107.0920 273° West 423 487 36,000  Level FlightAware
04:50PM 40.0380 -107.1990 274° West 420 483 36,000  Level FlightAware
04:51PM 40.0420 -107.3010 273° West 417 480 36,000  Level FlightAware
04:52PM 40.0470 -107.4050 274° West 416 479 36,000  Level FlightAware
04:52PM 40.0510 -107.5050 273° West 415 478 36,000  Level FlightAware
04:53PM 40.0560 -107.6250 273° West 415 478 36,000  Level FlightAware
04:54PM 40.0600 -107.7190 273° West 414 476 36,000  Level FlightAware
04:54PM 40.0640 -107.8230 273° West 414 476 36,000  Level FlightAware
04:55PM 40.0670 -107.9240 272° West 414 476 36,000  Level FlightAware
04:56PM 40.0730 -108.0400 274° West 414 476 36,000  Level FlightAware
04:56PM 40.0770 -108.1260 274° West 413 475 36,000  Level FlightAware
04:57PM 40.0820 -108.2460 273° West 412 474 36,000  Level FlightAware
04:58PM 40.0860 -108.3470 273° West 413 475 36,000  Level FlightAware
04:59PM 40.0910 -108.4450 274° West 412 474 36,000  Level FlightAware
04:59PM 40.0950 -108.5540 273° West 413 475 36,000  Level FlightAware
05:01PM 40.1040 -108.7860 273° West 413 475 36,000  Level FlightAware
05:01PM 40.1080 -108.8840 273° West 415 478 36,000  Level FlightAware
05:02PM 40.1120 -109.0000 273° West 415 478 36,000  Level FlightAware
05:03PM 40.1160 -109.0990 273° West 416 479 36,000  Level FlightAware
05:04PM 40.1200 -109.2010 273° West 415 478 36,000  Level FlightAware
05:04PM 40.1220 -109.2840 272° West 415 478 36,000  Level FlightAware
05:05PM 40.1250 -109.3870 272° West 415 478 36,000 -1,140 Level FlightAware
05:06PM 40.1310 -109.5300 273° West 415 478 34,300 -1,020 Descending FlightAware
05:07PM 40.1380 -109.7500 272° West 413 475 33,600 -360 Descending FlightAware
05:08PM 40.1390 -109.8230 271° West 413 475 33,600  Level FlightAware
05:09PM 40.1420 -109.9050 273° West 413 475 33,600  Level FlightAware
05:09PM 40.1440 -110.0070 272° West 413 475 33,600  Level FlightAware
05:10PM 40.1480 -110.1350 272° West 413 475 33,600  Level FlightAware
05:11PM 40.1500 -110.2070 272° West 413 475 33,600  Level FlightAware
05:12PM 40.1520 -110.3090 272° West 413 475 33,600  Level FlightAware
05:12PM 40.1540 -110.3890 272° West 413 475 33,600  Level FlightAware
05:13PM 40.1570 -110.4910 272° West 413 475 33,600  Level FlightAware
05:14PM 40.1590 -110.5640 272° West 413 475 33,600 -5,340 Level FlightAware
05:15PM 40.1414 -110.8553 272° West 396 456 25,900 -5,220 Descending Salt Lake Center
05:16PM 40.1414 -110.9939 270° West 381 438 23,700 -1,500 Descending Salt Lake Center
05:22PM 40.1880 -111.6940 270° West 299 344 15,800 -1,380 Descending FlightAware
05:22PM 40.2350 -111.7580 314° West 299 344 14,600 -1,500 Descending FlightAware
05:23PM 40.2970 -111.8370 316° Northwest 299 344 13,000 -1,740 Descending FlightAware
05:24PM 40.3440 -111.8810 324° Northwest 299 344 11,600 -2,460 Descending FlightAware
05:25PM 40.3910 -111.8990 344° North 296 341 9,800 -2,100 Descending FlightAware
05:25PM 40.4260 -111.9120 344° North 265 305 9,400 -420 Descending FlightAware
05:26PM 40.4960 -111.9370 345° North 260 299 9,200 -600 Descending FlightAware
05:27PM 40.5470 -111.9470 352° North 263 303 8,400 -1,260 Descending FlightAware
05:27PM 40.5790 -111.9510 355° North 261 300 7,800 -1,380 Descending FlightAware
05:28PM 40.6110 -111.9540 356° North 250 288 7,200 -1,380 Descending FlightAware
05:28PM 40.6470 -111.9580 355° North 225 259 6,500 -1,200 Descending FlightAware
05:29PM 40.6740 -111.9620 354° North 213 245 6,000 -1,080 Descending FlightAware
05:29PM 40.6970 -111.9640 356° North 193 222 5,600 -960 Descending FlightAware
05:30PM 40.7190 -111.9670 354° North 180 207 5,200 -660 Descending FlightAware
05:31PM 40.7870 -111.9750 355° North 167 192 4,300 -600 Descending FlightAware
05:39PM 40.7833 -111.9667 North  Level FlightAware Approximate